createdAt,value
2018-03-28T00:01:37.690Z,77.56
2018-03-28T00:02:37.649Z,76.90
2018-03-28T00:04:31.321Z,77.75
2018-03-28T00:05:31.284Z,77.66
2018-03-28T00:07:25.224Z,77.75
2018-03-28T00:08:24.908Z,77.28
2018-03-28T00:10:19.342Z,77.66
2018-03-28T00:11:18.550Z,76.99
2018-03-28T00:13:12.204Z,77.47
2018-03-28T00:14:12.182Z,77.56
2018-03-28T00:16:05.960Z,78.13
2018-03-28T00:17:05.929Z,77.94
2018-03-28T00:18:59.703Z,78.03
2018-03-28T00:19:59.645Z,77.37
2018-03-28T00:21:53.290Z,77.47
2018-03-28T00:22:53.248Z,78.03
2018-03-28T00:24:46.934Z,77.84
2018-03-28T00:25:46.889Z,77.75
2018-03-28T00:27:41.563Z,77.66
2018-03-28T00:28:41.548Z,77.75
2018-03-28T00:30:35.150Z,77.75
2018-03-28T00:31:35.147Z,77.18
2018-03-28T00:33:28.694Z,76.61
2018-03-28T00:34:28.659Z,76.42
2018-03-28T00:36:23.094Z,76.61
2018-03-28T00:37:22.164Z,76.80
2018-03-28T00:39:15.863Z,76.14
2018-03-28T00:40:15.822Z,76.71
2018-03-28T00:42:09.561Z,76.80
2018-03-28T00:43:09.534Z,77.18
2018-03-28T00:45:03.194Z,76.32
2018-03-28T00:46:03.150Z,76.32
2018-03-28T00:47:56.775Z,76.42
2018-03-28T00:48:56.725Z,75.85
2018-03-28T00:50:50.366Z,76.14
2018-03-28T00:51:50.326Z,75.85
2018-03-28T00:53:43.943Z,75.57
2018-03-28T00:54:43.917Z,75.85
2018-03-28T00:56:37.539Z,75.00
2018-03-28T00:57:37.500Z,75.47
2018-03-28T00:59:31.933Z,74.71
2018-03-28T01:00:31.129Z,75.38
2018-03-28T01:02:24.649Z,75.47
2018-03-28T01:03:24.633Z,75.19
2018-03-28T01:05:19.826Z,74.24
2018-03-28T01:06:19.779Z,74.52
2018-03-28T01:08:13.390Z,73.86
2018-03-28T01:09:13.386Z,74.05
2018-03-28T01:11:07.816Z,73.76
2018-03-28T01:12:06.904Z,73.67
2018-03-28T01:14:00.380Z,73.96
2018-03-28T01:15:00.365Z,73.86
2018-03-28T01:16:54.045Z,74.05
2018-03-28T01:17:53.996Z,73.38
2018-03-28T01:19:47.641Z,73.86
2018-03-28T01:20:47.604Z,73.96
2018-03-28T01:22:41.214Z,73.86
2018-03-28T01:23:41.200Z,73.86
2018-03-28T01:25:35.633Z,74.15
2018-03-28T01:26:34.767Z,73.38
2018-03-28T01:28:29.192Z,73.57
2018-03-28T01:29:28.397Z,73.96
2018-03-28T01:31:22.031Z,73.57
2018-03-28T01:32:21.991Z,73.19
2018-03-28T01:34:15.496Z,73.38
2018-03-28T01:35:15.486Z,73.10
2018-03-28T01:37:09.070Z,73.19
2018-03-28T01:38:09.029Z,73.10
2018-03-28T01:40:02.704Z,72.91
2018-03-28T01:41:02.664Z,73.10
2018-03-28T01:42:57.094Z,72.91
2018-03-28T01:43:56.362Z,72.72
2018-03-28T01:45:49.912Z,73.00
2018-03-28T01:46:49.858Z,72.81
2018-03-28T01:48:44.272Z,73.19
2018-03-28T01:49:43.564Z,73.10
2018-03-28T01:51:37.192Z,73.10
2018-03-28T01:52:37.140Z,73.10
2018-03-28T01:54:30.879Z,72.63
2018-03-28T01:55:30.845Z,72.72
2018-03-28T01:57:24.539Z,72.81
2018-03-28T01:58:24.517Z,72.81
2018-03-28T01:59:24.503Z,73.10
2018-03-28T02:00:24.497Z,72.63
2018-03-28T02:01:24.490Z,72.72
2018-03-28T02:02:24.474Z,72.91
2018-03-28T02:03:24.466Z,72.72
2018-03-28T02:04:24.456Z,73.10
2018-03-28T02:05:24.445Z,72.91
2018-03-28T02:06:24.437Z,73.10
2018-03-28T02:07:24.426Z,73.10
2018-03-28T02:08:24.417Z,72.91
2018-03-28T02:09:24.404Z,73.19
2018-03-28T02:10:24.396Z,73.10
2018-03-28T02:11:24.385Z,72.72
2018-03-28T02:12:24.380Z,72.72
2018-03-28T02:13:24.369Z,72.72
2018-03-28T02:14:24.362Z,72.81
2018-03-28T02:15:24.349Z,72.63
2018-03-28T02:16:24.336Z,72.44
2018-03-28T02:17:24.333Z,72.44
2018-03-28T02:18:24.323Z,72.34
2018-03-28T02:19:24.311Z,72.34
2018-03-28T02:20:24.301Z,72.53
2018-03-28T02:21:24.289Z,72.53
2018-03-28T02:22:24.283Z,72.53
2018-03-28T02:23:24.274Z,72.53
2018-03-28T02:24:24.263Z,72.53
2018-03-28T02:25:24.254Z,72.44
2018-03-28T02:26:24.243Z,72.63
2018-03-28T02:27:24.229Z,72.53
2018-03-28T02:28:24.223Z,71.96
2018-03-28T02:29:24.212Z,72.15
2018-03-28T02:30:24.209Z,72.44
2018-03-28T02:31:24.195Z,72.44
2018-03-28T02:32:24.187Z,72.53
2018-03-28T02:33:24.176Z,72.44
2018-03-28T02:34:24.165Z,72.44
2018-03-28T02:35:24.155Z,72.53
2018-03-28T02:36:24.149Z,72.06
2018-03-28T02:37:24.138Z,72.72
2018-03-28T02:38:24.130Z,72.63
2018-03-28T02:39:24.127Z,72.06
2018-03-28T02:40:24.105Z,72.72
2018-03-28T02:41:24.094Z,72.34
2018-03-28T02:42:24.086Z,72.72
2018-03-28T02:43:24.075Z,71.96
2018-03-28T02:44:24.070Z,72.06
2018-03-28T02:45:24.065Z,71.86
2018-03-28T02:46:24.052Z,72.06
2018-03-28T02:47:24.043Z,71.96
2018-03-28T02:48:24.045Z,72.25
2018-03-28T02:49:24.019Z,72.15
2018-03-28T02:50:24.030Z,72.25
2018-03-28T02:51:24.004Z,72.44
2018-03-28T02:52:23.994Z,71.86
2018-03-28T02:53:23.992Z,72.25
2018-03-28T02:54:23.977Z,72.25
2018-03-28T02:55:23.978Z,72.25
2018-03-28T02:56:23.956Z,72.15
2018-03-28T02:57:23.944Z,73.10
2018-03-28T02:58:23.935Z,73.10
2018-03-28T02:59:23.929Z,72.72
2018-03-28T03:00:23.919Z,73.10
2018-03-28T03:01:23.909Z,72.34
2018-03-28T03:02:23.898Z,72.63
2018-03-28T03:03:23.886Z,72.72
2018-03-28T03:04:23.876Z,72.34
2018-03-28T03:05:23.880Z,72.44
2018-03-28T03:06:23.862Z,72.91
2018-03-28T03:07:23.851Z,72.63
2018-03-28T03:08:23.917Z,72.15
2018-03-28T03:09:23.828Z,72.15
2018-03-28T03:10:23.818Z,72.25
2018-03-28T03:11:23.811Z,72.34
2018-03-28T03:12:23.801Z,72.06
2018-03-28T03:13:23.797Z,72.06
2018-03-28T03:14:23.787Z,72.15
2018-03-28T03:15:23.773Z,72.15
2018-03-28T03:16:23.766Z,72.15
2018-03-28T03:17:23.754Z,72.06
2018-03-28T03:18:23.747Z,71.67
2018-03-28T03:19:23.740Z,71.77
2018-03-28T03:20:23.728Z,71.77
2018-03-28T03:21:23.719Z,71.96
2018-03-28T03:22:23.709Z,71.77
2018-03-28T03:23:23.699Z,71.77
2018-03-28T03:24:23.687Z,71.96
2018-03-28T03:25:23.679Z,71.86
2018-03-28T03:26:23.671Z,71.77
2018-03-28T03:27:23.660Z,71.67
2018-03-28T03:28:23.657Z,71.67
2018-03-28T03:29:23.642Z,71.96
2018-03-28T03:30:23.629Z,71.67
2018-03-28T03:31:23.633Z,71.96
2018-03-28T03:32:23.610Z,71.96
2018-03-28T03:33:23.604Z,71.96
2018-03-28T03:34:23.596Z,72.25
2018-03-28T03:35:23.587Z,71.39
2018-03-28T03:36:23.573Z,71.20
2018-03-28T03:37:23.568Z,71.39
2018-03-28T03:38:23.558Z,71.39
2018-03-28T03:39:23.548Z,71.67
2018-03-28T03:40:23.536Z,71.77
2018-03-28T03:41:23.524Z,71.86
2018-03-28T03:42:23.522Z,71.58
2018-03-28T03:43:23.512Z,71.48
2018-03-28T03:44:23.496Z,71.77
2018-03-28T03:45:23.488Z,71.39
2018-03-28T03:46:23.478Z,71.48
2018-03-28T03:47:23.473Z,71.30
2018-03-28T03:48:23.458Z,71.48
2018-03-28T03:49:23.454Z,71.39
2018-03-28T03:50:23.442Z,71.48
2018-03-28T03:51:23.432Z,71.11
2018-03-28T03:52:23.428Z,71.39
2018-03-28T03:53:23.415Z,71.48
2018-03-28T03:54:23.406Z,71.30
2018-03-28T03:55:23.400Z,71.48
2018-03-28T03:56:23.388Z,71.11
2018-03-28T03:57:23.373Z,71.30
2018-03-28T03:58:23.366Z,71.01
2018-03-28T03:59:23.355Z,70.92
2018-03-28T04:00:23.348Z,71.20
2018-03-28T04:01:23.341Z,71.11
2018-03-28T04:02:23.332Z,71.20
2018-03-28T04:03:23.321Z,71.30
2018-03-28T04:04:23.308Z,71.20
2018-03-28T04:05:23.314Z,71.30
2018-03-28T04:06:23.295Z,71.11
2018-03-28T04:07:23.283Z,71.39
2018-03-28T04:08:23.274Z,70.92
2018-03-28T04:09:23.264Z,71.01
2018-03-28T04:10:23.255Z,70.73
2018-03-28T04:11:23.244Z,70.82
2018-03-28T04:12:23.259Z,70.63
2018-03-28T04:13:23.228Z,70.63
2018-03-28T04:14:23.218Z,70.54
2018-03-28T04:15:23.209Z,70.73
2018-03-28T04:16:23.197Z,70.92
2018-03-28T04:17:23.193Z,71.01
2018-03-28T04:18:23.178Z,70.73
2018-03-28T04:19:23.174Z,70.82
2018-03-28T04:20:23.162Z,71.01
2018-03-28T04:21:23.156Z,70.92
2018-03-28T04:22:23.144Z,71.11
2018-03-28T04:23:23.134Z,70.92
2018-03-28T04:24:23.128Z,71.01
2018-03-28T04:25:23.114Z,70.73
2018-03-28T04:26:23.104Z,70.92
2018-03-28T04:27:23.095Z,71.01
2018-03-28T04:28:23.087Z,70.63
2018-03-28T04:29:23.081Z,70.44
2018-03-28T04:30:23.066Z,70.25
2018-03-28T04:31:23.057Z,70.35
2018-03-28T04:32:23.048Z,70.44
2018-03-28T04:33:23.038Z,70.15
2018-03-28T04:34:23.032Z,70.25
2018-03-28T04:35:23.023Z,70.25
2018-03-28T04:36:23.015Z,70.63
2018-03-28T04:37:23.002Z,70.54
2018-03-28T04:38:22.990Z,70.63
2018-03-28T04:39:22.981Z,70.63
2018-03-28T04:40:22.977Z,70.15
2018-03-28T04:41:22.970Z,70.15
2018-03-28T04:42:22.967Z,69.96
2018-03-28T04:43:22.946Z,70.54
2018-03-28T04:44:22.933Z,70.44
2018-03-28T04:45:22.924Z,70.15
2018-03-28T04:46:22.917Z,70.06
2018-03-28T04:47:22.908Z,70.35
2018-03-28T04:48:22.903Z,70.15
2018-03-28T04:49:22.893Z,70.35
2018-03-28T04:50:22.881Z,70.06
2018-03-28T04:51:22.884Z,70.15
2018-03-28T04:52:22.863Z,70.06
2018-03-28T04:53:22.854Z,70.35
2018-03-28T04:54:22.852Z,70.15
2018-03-28T04:55:22.836Z,70.25
2018-03-28T04:56:22.826Z,70.35
2018-03-28T04:57:22.813Z,70.15
2018-03-28T04:58:22.813Z,70.35
2018-03-28T04:59:22.794Z,70.15
2018-03-28T05:00:22.790Z,70.15
2018-03-28T05:01:22.780Z,70.25
2018-03-28T05:02:22.771Z,70.25
2018-03-28T05:03:22.762Z,70.25
2018-03-28T05:04:22.753Z,70.35
2018-03-28T05:05:22.743Z,70.25
2018-03-28T05:06:22.731Z,70.25
2018-03-28T05:07:22.727Z,70.25
2018-03-28T05:08:22.717Z,70.25
2018-03-28T05:09:22.706Z,70.35
2018-03-28T05:10:22.694Z,70.25
2018-03-28T05:11:22.684Z,70.25
2018-03-28T05:12:22.673Z,70.25
2018-03-28T05:13:22.665Z,70.44
2018-03-28T05:14:22.660Z,70.25
2018-03-28T05:15:22.654Z,70.54
2018-03-28T05:16:22.638Z,70.35
2018-03-28T05:17:22.631Z,70.44
2018-03-28T05:18:22.619Z,70.25
2018-03-28T05:19:22.608Z,70.54
2018-03-28T05:20:22.599Z,70.54
2018-03-28T05:21:22.595Z,70.54
2018-03-28T05:22:22.584Z,70.54
2018-03-28T05:23:22.574Z,70.54
2018-03-28T05:24:22.565Z,70.44
2018-03-28T05:25:22.554Z,70.44
2018-03-28T05:26:22.549Z,70.44
2018-03-28T05:27:22.538Z,70.54
2018-03-28T05:28:22.529Z,70.44
2018-03-28T05:29:22.518Z,70.54
2018-03-28T05:30:22.510Z,70.44
2018-03-28T05:31:22.502Z,70.35
2018-03-28T05:32:22.487Z,70.35
2018-03-28T05:33:22.484Z,70.44
2018-03-28T05:34:22.470Z,70.54
2018-03-28T05:35:22.463Z,70.35
2018-03-28T05:36:22.453Z,70.25
2018-03-28T05:37:22.445Z,69.78
2018-03-28T05:38:22.438Z,69.96
2018-03-28T05:39:22.422Z,69.96
2018-03-28T05:40:22.420Z,70.25
2018-03-28T05:41:22.409Z,69.96
2018-03-28T05:42:22.398Z,70.25
2018-03-28T05:43:22.389Z,69.96
2018-03-28T05:44:22.377Z,69.96
2018-03-28T05:45:22.368Z,69.96
2018-03-28T05:46:22.360Z,70.06
2018-03-28T05:47:22.347Z,70.15
2018-03-28T05:48:22.343Z,69.96
2018-03-28T05:49:22.331Z,69.68
2018-03-28T05:50:22.353Z,69.87
2018-03-28T05:51:22.316Z,69.87
2018-03-28T05:52:22.303Z,69.68
2018-03-28T05:53:22.293Z,69.78
2018-03-28T05:54:22.285Z,69.87
2018-03-28T05:55:22.277Z,69.68
2018-03-28T05:56:22.267Z,69.68
2018-03-28T05:57:22.260Z,69.68
2018-03-28T05:58:22.252Z,69.78
2018-03-28T05:59:22.240Z,69.53
2018-03-28T06:00:22.259Z,69.68
2018-03-28T06:01:22.226Z,69.68
2018-03-28T06:02:22.213Z,69.68
2018-03-28T06:03:22.204Z,69.53
2018-03-28T06:04:22.198Z,69.91
2018-03-28T06:05:22.187Z,69.71
2018-03-28T06:06:22.176Z,69.68
2018-03-28T06:07:22.218Z,69.68
2018-03-28T06:08:22.156Z,69.62
2018-03-28T06:09:22.145Z,69.59
2018-03-28T06:10:22.141Z,69.91
2018-03-28T06:11:22.131Z,69.43
2018-03-28T06:12:22.123Z,69.59
2018-03-28T06:13:22.110Z,69.71
2018-03-28T06:14:22.101Z,69.53
2018-03-28T06:15:22.092Z,69.71
2018-03-28T06:16:22.081Z,69.53
2018-03-28T06:17:22.079Z,69.53
2018-03-28T06:18:22.073Z,69.62
2018-03-28T06:19:22.056Z,69.53
2018-03-28T06:20:22.045Z,69.71
2018-03-28T06:21:22.034Z,69.62
2018-03-28T06:22:22.026Z,69.81
2018-03-28T06:23:22.020Z,69.53
2018-03-28T06:24:22.013Z,69.71
2018-03-28T06:25:22.002Z,69.53
2018-03-28T06:26:21.991Z,69.81
2018-03-28T06:27:21.977Z,69.71
2018-03-28T06:28:21.978Z,69.81
2018-03-28T06:29:21.966Z,69.43
2018-03-28T06:30:21.956Z,69.91
2018-03-28T06:31:21.946Z,69.24
2018-03-28T06:32:21.938Z,69.62
2018-03-28T06:33:21.928Z,69.91
2018-03-28T06:34:21.916Z,69.53
2018-03-28T06:35:21.906Z,69.81
2018-03-28T06:36:21.904Z,69.53
2018-03-28T06:37:21.895Z,69.91
2018-03-28T06:38:21.882Z,69.53
2018-03-28T06:39:21.877Z,69.62
2018-03-28T06:40:21.861Z,69.24
2018-03-28T06:41:21.852Z,69.15
2018-03-28T06:42:21.846Z,69.43
2018-03-28T06:43:21.836Z,69.43
2018-03-28T06:44:21.834Z,69.62
2018-03-28T06:45:21.824Z,70.00
2018-03-28T06:46:21.811Z,69.81
2018-03-28T06:47:21.809Z,69.34
2018-03-28T06:48:21.786Z,69.62
2018-03-28T06:49:21.782Z,69.15
2018-03-28T06:50:21.779Z,69.05
2018-03-28T06:51:21.763Z,69.15
2018-03-28T06:52:21.756Z,69.05
2018-03-28T06:53:21.747Z,69.15
2018-03-28T06:54:21.732Z,69.15
2018-03-28T06:55:21.723Z,69.24
2018-03-28T06:56:21.718Z,69.05
2018-03-28T06:57:21.709Z,69.24
2018-03-28T06:58:21.700Z,69.15
2018-03-28T06:59:21.690Z,69.34
2018-03-28T07:00:21.681Z,69.15
2018-03-28T07:01:21.669Z,69.05
2018-03-28T07:02:21.660Z,69.24
2018-03-28T07:03:21.653Z,69.24
2018-03-28T07:04:21.643Z,69.24
2018-03-28T07:05:21.634Z,69.34
2018-03-28T07:06:21.624Z,69.05
2018-03-28T07:07:21.618Z,69.15
2018-03-28T07:08:21.604Z,69.15
2018-03-28T07:09:21.596Z,69.15
2018-03-28T07:10:21.588Z,69.34
2018-03-28T07:11:21.583Z,69.15
2018-03-28T07:12:21.569Z,69.34
2018-03-28T07:13:21.561Z,69.24
2018-03-28T07:14:21.552Z,69.24
2018-03-28T07:15:21.540Z,69.34
2018-03-28T07:16:21.529Z,69.05
2018-03-28T07:17:21.522Z,69.34
2018-03-28T07:18:21.512Z,69.24
2018-03-28T07:19:21.507Z,69.24
2018-03-28T07:20:21.499Z,69.15
2018-03-28T07:21:21.489Z,69.15
2018-03-28T07:22:21.483Z,69.05
2018-03-28T07:23:21.466Z,68.96
2018-03-28T07:24:21.461Z,68.96
2018-03-28T07:25:21.453Z,69.24
2018-03-28T07:26:21.445Z,69.43
2018-03-28T07:27:21.434Z,69.05
2018-03-28T07:28:21.426Z,69.15
2018-03-28T07:29:21.414Z,69.05
2018-03-28T07:30:21.411Z,69.43
2018-03-28T07:31:21.396Z,69.15
2018-03-28T07:32:21.390Z,69.34
2018-03-28T07:33:21.381Z,69.24
2018-03-28T07:34:21.377Z,69.15
2018-03-28T07:35:21.364Z,69.15
2018-03-28T07:36:21.348Z,69.15
2018-03-28T07:37:21.342Z,69.24
2018-03-28T07:38:21.334Z,69.15
2018-03-28T07:39:21.322Z,69.15
2018-03-28T07:40:21.319Z,69.15
2018-03-28T07:41:21.311Z,69.34
2018-03-28T07:42:21.303Z,69.43
2018-03-28T07:43:21.291Z,69.34
2018-03-28T07:44:21.282Z,69.34
2018-03-28T07:45:21.276Z,69.27
2018-03-28T07:46:21.264Z,69.34
2018-03-28T07:47:21.256Z,69.15
2018-03-28T07:48:21.244Z,68.99
2018-03-28T07:49:21.238Z,69.46
2018-03-28T07:50:21.228Z,68.80
2018-03-28T07:51:21.218Z,69.09
2018-03-28T07:52:21.208Z,68.99
2018-03-28T07:53:21.207Z,68.99
2018-03-28T07:54:21.193Z,69.27
2018-03-28T07:55:21.184Z,69.37
2018-03-28T07:56:21.180Z,69.37
2018-03-28T07:57:21.163Z,69.18
2018-03-28T07:58:21.155Z,68.99
2018-03-28T07:59:21.144Z,69.18
2018-03-28T08:00:21.136Z,69.09
2018-03-28T08:01:21.133Z,69.46
2018-03-28T08:02:21.124Z,69.27
2018-03-28T08:03:21.110Z,69.27
2018-03-28T08:04:21.101Z,69.27
2018-03-28T08:05:21.096Z,69.27
2018-03-28T08:06:21.083Z,68.99
2018-03-28T08:07:21.079Z,69.46
2018-03-28T08:08:21.068Z,69.27
2018-03-28T08:09:21.060Z,69.18
2018-03-28T08:10:21.063Z,69.37
2018-03-28T08:11:21.040Z,68.90
2018-03-28T08:12:21.036Z,68.90
2018-03-28T08:13:21.030Z,69.46
2018-03-28T08:14:21.017Z,69.46
2018-03-28T08:15:21.008Z,69.85
2018-03-28T08:16:20.998Z,69.94
2018-03-28T08:17:20.990Z,69.56
2018-03-28T08:18:20.980Z,69.69
2018-03-28T08:19:20.973Z,70.36
2018-03-28T08:20:20.962Z,69.98
2018-03-28T08:21:20.954Z,70.07
2018-03-28T08:22:20.948Z,69.69
2018-03-28T08:23:20.936Z,69.98
2018-03-28T08:24:20.931Z,69.88
2018-03-28T08:25:20.924Z,70.07
2018-03-28T08:26:20.918Z,70.74
2018-03-28T08:27:20.907Z,70.45
2018-03-28T08:28:20.898Z,70.54
2018-03-28T08:29:20.886Z,71.22
2018-03-28T08:30:20.882Z,71.41
2018-03-28T08:31:20.868Z,71.22
2018-03-28T08:32:20.860Z,71.12
2018-03-28T08:33:20.860Z,71.59
2018-03-28T08:34:20.845Z,71.31
2018-03-28T08:35:20.837Z,71.12
2018-03-28T08:36:20.830Z,71.22
2018-03-28T08:37:20.820Z,71.22
2018-03-28T08:38:20.814Z,71.78
2018-03-28T08:39:20.808Z,72.35
2018-03-28T08:40:20.803Z,72.07
2018-03-28T08:41:20.791Z,71.69
2018-03-28T08:42:20.780Z,71.97
2018-03-28T08:43:20.773Z,72.07
2018-03-28T08:44:20.768Z,72.26
2018-03-28T08:45:20.759Z,71.97
2018-03-28T08:46:20.779Z,72.64
2018-03-28T08:47:20.745Z,72.49
2018-03-28T08:48:20.764Z,72.30
2018-03-28T08:49:20.726Z,73.15
2018-03-28T08:50:20.718Z,75.72
2018-03-28T08:51:20.708Z,73.91
2018-03-28T08:52:20.703Z,73.44
2018-03-28T08:53:20.696Z,74.67
2018-03-28T08:54:20.698Z,75.62
2018-03-28T08:55:20.678Z,74.99
2018-03-28T08:56:20.674Z,75.85
2018-03-28T08:57:20.665Z,77.47
2018-03-28T08:58:20.661Z,78.90
2018-03-28T08:59:20.653Z,77.00
2018-03-28T09:00:20.644Z,79.57
2018-03-28T09:01:20.636Z,79.85
2018-03-28T09:02:20.629Z,78.33
2018-03-28T09:03:20.619Z,82.32
2018-03-28T09:04:20.622Z,79.85
2018-03-28T09:05:20.610Z,79.57
2018-03-28T09:06:20.603Z,77.95
2018-03-28T09:07:20.596Z,80.36
2018-03-28T09:08:20.587Z,78.56
2018-03-28T09:09:20.578Z,79.99
2018-03-28T09:10:20.572Z,78.90
2018-03-28T09:11:20.565Z,77.89
2018-03-28T09:12:20.568Z,79.99
2018-03-28T09:13:20.554Z,81.32
2018-03-28T09:14:20.551Z,82.75
2018-03-28T09:15:20.547Z,78.94
2018-03-28T09:16:20.536Z,81.70
2018-03-28T09:17:20.526Z,80.18
2018-03-28T09:18:20.523Z,79.41
2018-03-28T09:19:20.522Z,79.19
2018-03-28T09:20:20.509Z,82.32
2018-03-28T09:21:20.498Z,80.33
2018-03-28T09:22:20.492Z,86.61
2018-03-28T09:23:20.483Z,79.47
2018-03-28T09:24:20.482Z,77.66
2018-03-28T09:25:20.476Z,79.75
2018-03-28T09:26:20.468Z,78.14
2018-03-28T09:27:20.455Z,79.66
2018-03-28T09:28:20.450Z,83.56
2018-03-28T09:29:20.444Z,82.80
2018-03-28T09:30:20.441Z,80.42
2018-03-28T09:31:20.437Z,86.04
2018-03-28T09:32:20.423Z,86.22
2018-03-28T09:33:20.423Z,80.13
2018-03-28T09:34:20.409Z,80.13
2018-03-28T09:35:20.404Z,80.99
2018-03-28T09:36:20.397Z,84.70
2018-03-28T09:37:20.392Z,80.23
2018-03-28T09:38:20.385Z,80.90
2018-03-28T09:39:20.379Z,79.57
2018-03-28T09:40:20.377Z,82.23
2018-03-28T09:41:20.363Z,81.66
2018-03-28T09:42:20.360Z,79.80
2018-03-28T09:43:20.349Z,82.08
2018-03-28T09:44:20.347Z,78.33
2018-03-28T09:45:20.339Z,79.85
2018-03-28T09:46:20.333Z,88.13
2018-03-28T09:47:20.318Z,88.60
2018-03-28T09:48:20.314Z,81.32
2018-03-28T09:49:20.304Z,81.66
2018-03-28T09:50:20.307Z,82.46
2018-03-28T09:51:20.294Z,82.27
2018-03-28T09:52:20.291Z,81.56
2018-03-28T09:53:20.277Z,81.41
2018-03-28T09:54:20.276Z,83.03
2018-03-28T09:55:20.265Z,85.60
2018-03-28T09:56:20.266Z,87.03
2018-03-28T09:57:20.254Z,84.94
2018-03-28T09:58:20.246Z,83.61
2018-03-28T09:59:20.249Z,88.46
2018-03-28T10:00:20.231Z,82.37
2018-03-28T10:01:20.224Z,85.89
2018-03-28T10:02:20.217Z,79.22
2018-03-28T10:03:20.265Z,84.08
2018-03-28T10:04:20.203Z,81.89
2018-03-28T10:05:20.201Z,83.70
2018-03-28T10:06:20.190Z,82.08
2018-03-28T10:07:20.182Z,87.60
2018-03-28T10:08:20.182Z,82.08
2018-03-28T10:09:20.174Z,82.46
2018-03-28T10:10:20.167Z,82.75
2018-03-28T10:11:20.160Z,84.84
2018-03-28T10:12:20.150Z,82.27
2018-03-28T10:13:20.141Z,86.18
2018-03-28T10:14:20.137Z,81.70
2018-03-28T10:15:20.131Z,80.84
2018-03-28T10:16:20.125Z,81.70
2018-03-28T10:17:20.120Z,85.80
2018-03-28T10:18:20.113Z,84.84
2018-03-28T10:19:20.134Z,84.46
2018-03-28T10:20:20.095Z,79.89
2018-03-28T10:21:20.091Z,83.41
2018-03-28T10:22:20.090Z,83.22
2018-03-28T10:23:20.077Z,81.70
2018-03-28T10:24:20.072Z,83.98
2018-03-28T10:25:20.063Z,88.08
2018-03-28T10:26:20.056Z,81.23
2018-03-28T10:27:20.047Z,88.75
2018-03-28T10:28:20.039Z,84.36
2018-03-28T10:29:20.037Z,88.84
2018-03-28T10:30:20.033Z,81.23
2018-03-28T10:31:20.024Z,82.18
2018-03-28T10:32:20.016Z,82.93
2018-03-28T10:33:20.006Z,85.22
2018-03-28T10:34:20.000Z,88.27
2018-03-28T10:35:19.999Z,82.56
2018-03-28T10:36:19.993Z,84.36
2018-03-28T10:37:19.982Z,86.27
2018-03-28T10:38:19.976Z,84.65
2018-03-28T10:39:19.966Z,84.84
2018-03-28T10:40:19.964Z,83.41
2018-03-28T10:41:19.952Z,84.84
2018-03-28T10:42:19.948Z,84.75
2018-03-28T10:43:19.941Z,84.46
2018-03-28T10:44:19.932Z,87.79
2018-03-28T10:45:19.926Z,81.89
2018-03-28T10:46:19.921Z,86.18
2018-03-28T10:47:19.931Z,85.70
2018-03-28T10:48:19.905Z,86.75
2018-03-28T10:49:19.899Z,88.18
2018-03-28T10:50:19.892Z,84.75
2018-03-28T10:51:19.883Z,85.60
2018-03-28T10:52:19.876Z,84.56
2018-03-28T10:53:19.865Z,85.41
2018-03-28T10:54:19.861Z,83.61
2018-03-28T10:55:19.856Z,87.23
2018-03-28T10:56:19.849Z,84.75
2018-03-28T10:57:19.842Z,83.98
2018-03-28T10:58:19.836Z,84.65
2018-03-28T10:59:19.830Z,84.65
2018-03-28T11:00:19.818Z,83.51
2018-03-28T11:01:19.819Z,83.22
2018-03-28T11:02:19.806Z,85.99
2018-03-28T11:03:19.823Z,84.17
2018-03-28T11:04:19.796Z,84.56
2018-03-28T11:05:19.786Z,84.65
2018-03-28T11:06:19.778Z,83.32
2018-03-28T11:07:19.776Z,87.98
2018-03-28T11:08:19.769Z,80.84
2018-03-28T11:09:19.759Z,82.56
2018-03-28T11:10:19.759Z,84.17
2018-03-28T11:11:19.746Z,86.27
2018-03-28T11:12:19.750Z,84.27
2018-03-28T11:13:19.728Z,88.37
2018-03-28T11:14:19.722Z,84.84
2018-03-28T11:15:19.718Z,81.03
2018-03-28T11:16:19.715Z,84.75
2018-03-28T11:17:19.709Z,85.51
2018-03-28T11:18:19.692Z,84.08
2018-03-28T11:19:19.685Z,84.69
2018-03-28T11:20:19.680Z,86.55
2018-03-28T11:21:19.673Z,84.27
2018-03-28T11:22:19.672Z,82.98
2018-03-28T11:23:19.663Z,84.41
2018-03-28T11:24:19.657Z,86.55
2018-03-28T11:25:19.643Z,83.13
2018-03-28T11:26:19.635Z,82.37
2018-03-28T11:27:19.636Z,79.60
2018-03-28T11:28:19.629Z,84.65
2018-03-28T11:29:19.616Z,85.51
2018-03-28T11:30:19.610Z,83.61
2018-03-28T11:31:19.617Z,82.37
2018-03-28T11:32:19.593Z,83.41
2018-03-28T11:33:19.588Z,84.36
2018-03-28T11:34:19.604Z,82.08
2018-03-28T11:35:19.578Z,83.22
2018-03-28T11:36:19.570Z,80.94
2018-03-28T11:37:19.563Z,86.55
2018-03-28T11:38:19.558Z,84.94
2018-03-28T11:39:19.545Z,83.41
2018-03-28T11:40:19.538Z,83.41
2018-03-28T11:41:19.533Z,83.98
2018-03-28T11:42:19.527Z,85.41
2018-03-28T11:43:19.521Z,83.98
2018-03-28T11:44:19.511Z,83.32
2018-03-28T11:45:19.503Z,85.03
2018-03-28T11:46:19.508Z,81.51
2018-03-28T11:47:19.487Z,84.65
2018-03-28T11:48:19.482Z,86.08
2018-03-28T11:49:19.481Z,83.13
2018-03-28T11:50:19.469Z,83.03
2018-03-28T11:51:19.456Z,81.89
2018-03-28T11:52:19.456Z,83.70
2018-03-28T11:53:19.442Z,83.41
2018-03-28T11:54:19.435Z,83.22
2018-03-28T11:55:19.432Z,83.32
2018-03-28T11:56:19.424Z,83.03
2018-03-28T11:57:19.423Z,83.13
2018-03-28T11:58:19.442Z,83.22
2018-03-28T11:59:19.402Z,81.79
2018-03-28T12:00:19.393Z,81.51
2018-03-28T12:01:19.390Z,84.36
2018-03-28T12:02:19.380Z,84.94
2018-03-28T12:03:19.372Z,83.89
2018-03-28T12:04:19.366Z,84.36
2018-03-28T12:05:19.362Z,84.65
2018-03-28T12:06:19.349Z,85.03
2018-03-28T12:07:19.345Z,84.94
2018-03-28T12:08:19.340Z,80.65
2018-03-28T12:09:19.327Z,86.94
2018-03-28T12:10:19.329Z,83.89
2018-03-28T12:11:19.309Z,83.03
2018-03-28T12:12:19.301Z,80.65
2018-03-28T12:13:19.346Z,84.75
2018-03-28T12:14:19.323Z,84.56
2018-03-28T12:15:19.565Z,82.93
2018-03-28T12:16:19.277Z,83.70
2018-03-28T12:17:19.270Z,83.51
2018-03-28T12:18:19.260Z,84.46
2018-03-28T12:19:19.251Z,83.89
2018-03-28T12:20:19.246Z,83.22
2018-03-28T12:21:19.240Z,83.89
2018-03-28T12:22:19.233Z,83.70
2018-03-28T12:23:19.224Z,82.75
2018-03-28T12:24:19.216Z,83.89
2018-03-28T12:25:19.207Z,82.93
2018-03-28T12:26:19.199Z,83.84
2018-03-28T12:27:19.191Z,84.03
2018-03-28T12:28:19.187Z,79.93
2018-03-28T12:29:19.176Z,83.03
2018-03-28T12:30:19.171Z,84.36
2018-03-28T12:31:19.165Z,82.08
2018-03-28T12:32:19.155Z,82.75
2018-03-28T12:33:19.149Z,85.41
2018-03-28T12:34:19.150Z,83.70
2018-03-28T12:35:19.134Z,83.51
2018-03-28T12:36:19.127Z,84.65
2018-03-28T12:37:19.118Z,84.27
2018-03-28T12:38:19.108Z,85.32
2018-03-28T12:39:19.102Z,80.94
2018-03-28T12:40:19.099Z,85.03
2018-03-28T12:41:19.089Z,77.13
2018-03-28T12:42:19.078Z,82.27
2018-03-28T12:43:19.073Z,83.94
2018-03-28T12:44:19.065Z,83.94
2018-03-28T12:45:19.053Z,77.19
2018-03-28T12:46:19.048Z,82.42
2018-03-28T12:47:19.051Z,81.76
2018-03-28T12:48:19.067Z,84.13
2018-03-28T12:49:19.026Z,78.04
2018-03-28T12:50:19.021Z,77.85
2018-03-28T12:51:19.008Z,75.85
2018-03-28T12:52:19.152Z,82.42
2018-03-28T12:53:18.994Z,77.37
2018-03-28T12:54:18.987Z,75.19
2018-03-28T12:55:18.982Z,80.61
2018-03-28T12:56:18.976Z,77.00
2018-03-28T12:57:18.965Z,74.24
2018-03-28T12:58:18.955Z,74.62
2018-03-28T12:59:18.945Z,73.47
2018-03-28T13:00:18.940Z,75.57
2018-03-28T13:01:18.932Z,74.43
2018-03-28T13:02:18.938Z,78.42
2018-03-28T13:03:18.918Z,72.81
2018-03-28T13:04:18.908Z,74.90
2018-03-28T13:05:18.927Z,74.04
2018-03-28T13:06:18.896Z,71.47
2018-03-28T13:07:18.887Z,75.95
2018-03-28T13:08:18.875Z,77.28
2018-03-28T13:09:18.889Z,76.52
2018-03-28T13:10:18.859Z,76.52
2018-03-28T13:11:18.851Z,73.57
2018-03-28T13:12:18.843Z,71.86
2018-03-28T13:13:18.836Z,73.47
2018-03-28T13:14:18.828Z,73.28
2018-03-28T13:15:18.819Z,72.14
2018-03-28T13:16:18.874Z,72.81
2018-03-28T13:17:18.806Z,72.01
2018-03-28T13:18:18.793Z,71.06
2018-03-28T13:19:18.786Z,71.34
2018-03-28T13:20:18.781Z,69.95
2018-03-28T13:21:18.774Z,69.95
2018-03-28T13:22:18.790Z,69.63
2018-03-28T13:23:18.778Z,69.57
2018-03-28T13:24:18.758Z,70.39
2018-03-28T13:25:18.736Z,71.72
2018-03-28T13:26:18.733Z,72.01
2018-03-28T13:27:18.717Z,72.01
2018-03-28T13:28:18.735Z,71.15
2018-03-28T13:29:18.702Z,72.30